createdAt,value
2023-03-21T00:01:54.430Z,101268.41
2023-03-21T00:04:28.390Z,101245.59
2023-03-21T00:06:56.828Z,101255.81
2023-03-21T00:09:24.278Z,101245.06
2023-03-21T00:11:51.279Z,101249.34
2023-03-21T00:14:21.323Z,101245.59
2023-03-21T00:16:52.254Z,101247.47
2023-03-21T00:19:21.118Z,101253.34
2023-03-21T00:22:08.712Z,101242.66
2023-03-21T00:24:39.416Z,101237.00
2023-03-21T00:27:43.048Z,101237.00
2023-03-21T00:29:54.774Z,101233.22
2023-03-21T00:32:22.324Z,101236.16
2023-03-21T00:35:38.297Z,101233.47
2023-03-21T00:37:37.473Z,101230.28
2023-03-21T00:40:27.836Z,101226.75
2023-03-21T00:42:58.394Z,101224.91
2023-03-21T00:45:25.465Z,101223.28
2023-03-21T00:47:52.667Z,101228.91
2023-03-21T00:50:19.779Z,101230.78
2023-03-21T00:52:46.869Z,101225.97
2023-03-21T00:55:16.224Z,101229.19
2023-03-21T00:57:47.571Z,101231.59
2023-03-21T01:00:18.971Z,101226.22
2023-03-21T01:03:02.551Z,101223.25
2023-03-21T01:05:55.767Z,101233.75
2023-03-21T01:08:28.199Z,101236.44
2023-03-21T01:11:02.530Z,101231.59
2023-03-21T01:13:29.942Z,101229.94
2023-03-21T01:15:57.555Z,101231.28
2023-03-21T01:18:27.334Z,101225.66
2023-03-21T01:20:57.959Z,101224.31
2023-03-21T01:23:26.212Z,101230.75
2023-03-21T01:25:54.566Z,101219.22
2023-03-21T01:28:22.421Z,101220.28
2023-03-21T01:30:51.485Z,101223.25
2023-03-21T01:33:20.516Z,101218.13
2023-03-21T01:35:53.458Z,101220.81
2023-03-21T01:38:27.822Z,101219.22
2023-03-21T01:40:54.901Z,101213.28
2023-03-21T01:43:26.094Z,101205.78
2023-03-21T01:46:21.394Z,101217.34
2023-03-21T01:48:58.206Z,101214.91
2023-03-21T01:51:27.432Z,101206.34
2023-03-21T01:53:55.970Z,101207.38
2023-03-21T01:56:31.012Z,101209.59
2023-03-21T01:59:17.472Z,101201.22
2023-03-21T02:01:45.928Z,101194.50
2023-03-21T02:04:13.111Z,101190.19
2023-03-21T02:06:54.476Z,101204.69
2023-03-21T02:09:25.420Z,101186.44
2023-03-21T02:11:54.966Z,101196.91
2023-03-21T02:14:29.074Z,101195.56
2023-03-21T02:17:15.033Z,101181.59
2023-03-21T02:20:09.487Z,101183.19
2023-03-21T02:22:46.530Z,101183.72
2023-03-21T02:25:22.680Z,101177.28
2023-03-21T02:27:59.086Z,101169.81
2023-03-21T02:30:49.186Z,101166.00
2023-03-21T02:33:36.398Z,101164.66
2023-03-21T02:36:15.082Z,101155.50
2023-03-21T02:39:04.583Z,101147.47
2023-03-21T02:41:53.580Z,101152.56
2023-03-21T02:44:23.457Z,101139.13
2023-03-21T02:47:06.281Z,101131.66
2023-03-21T02:50:02.224Z,101135.91
2023-03-21T02:52:38.996Z,101122.00
2023-03-21T02:55:13.918Z,101131.66
2023-03-21T02:57:44.090Z,101124.66
2023-03-21T03:00:17.980Z,101123.59
2023-03-21T03:02:45.221Z,101112.78
2023-03-21T03:05:22.143Z,101117.69
2023-03-21T03:07:55.351Z,101109.56
2023-03-21T03:10:34.580Z,101104.72
2023-03-21T03:13:22.983Z,101101.84
2023-03-21T03:16:15.558Z,101091.88
2023-03-21T03:19:01.176Z,101079.47
2023-03-21T03:21:42.330Z,101084.84
2023-03-21T03:24:20.582Z,101077.91
2023-03-21T03:26:54.322Z,101082.16
2023-03-21T03:29:22.707Z,101080.81
2023-03-21T03:32:03.901Z,101069.25
2023-03-21T03:34:39.488Z,101068.19
2023-03-21T03:37:11.212Z,101073.56
2023-03-21T03:39:41.499Z,101074.63
2023-03-21T03:42:34.687Z,101073.50
2023-03-21T03:45:04.072Z,101070.31
2023-03-21T03:47:39.901Z,101068.13
2023-03-21T03:50:53.886Z,101065.72
2023-03-21T03:53:26.488Z,101067.38
2023-03-21T03:55:55.870Z,101061.16
2023-03-21T03:58:36.148Z,101057.38
2023-03-21T04:01:10.991Z,101062.22
2023-03-21T04:03:48.831Z,101057.88
2023-03-21T04:06:18.468Z,101043.41
2023-03-21T04:08:46.004Z,101051.72
2023-03-21T04:11:16.324Z,101045.56
2023-03-21T04:13:43.790Z,101042.84
2023-03-21T04:16:14.294Z,101043.38
2023-03-21T04:18:41.863Z,101048.75
2023-03-21T04:21:13.305Z,101044.00
2023-03-21T04:23:41.488Z,101042.84
2023-03-21T04:26:08.885Z,101039.09
2023-03-21T04:28:37.206Z,101036.97
2023-03-21T04:31:24.205Z,101033.72
2023-03-21T04:33:52.523Z,101026.75
2023-03-21T04:36:30.711Z,101029.44
2023-03-21T04:39:01.718Z,101025.41
2023-03-21T04:41:29.224Z,101027.81
2023-03-21T04:43:56.576Z,101031.31
2023-03-21T04:46:24.061Z,101029.16
2023-03-21T04:48:51.383Z,101023.50
2023-03-21T04:51:18.804Z,101034.00
2023-03-21T04:53:49.251Z,101028.88
2023-03-21T04:56:16.442Z,101031.59
2023-03-21T04:58:43.725Z,101030.22
2023-03-21T05:01:14.521Z,101025.31
2023-03-21T05:03:41.731Z,101022.41
2023-03-21T05:06:10.003Z,101016.78
2023-03-21T05:08:37.271Z,101014.38
2023-03-21T05:11:04.601Z,101029.44
2023-03-21T05:13:31.619Z,101020.03
2023-03-21T05:15:58.637Z,101028.31
2023-03-21T05:18:26.202Z,101022.97
2023-03-21T05:20:54.233Z,101024.59
2023-03-21T05:23:22.780Z,101021.94
2023-03-21T05:25:50.205Z,101023.25
2023-03-21T05:28:21.010Z,101020.56
2023-03-21T05:30:48.200Z,101020.03
2023-03-21T05:33:15.305Z,101023.50
2023-03-21T05:35:42.922Z,101017.59
2023-03-21T05:38:10.171Z,101018.38
2023-03-21T05:40:37.184Z,101009.28
2023-03-21T05:43:04.250Z,101012.81
2023-03-21T05:45:31.262Z,100989.19
2023-03-21T05:47:58.369Z,100994.47
2023-03-21T05:50:25.568Z,100987.78
2023-03-21T05:52:52.614Z,100981.84
2023-03-21T05:55:19.628Z,100985.63
2023-03-21T05:57:46.768Z,100982.63
2023-03-21T06:00:15.301Z,100987.47
2023-03-21T06:02:42.957Z,100975.53
2023-03-21T06:05:10.671Z,100965.09
2023-03-21T06:07:37.765Z,100977.16
2023-03-21T06:10:05.682Z,100973.16
2023-03-21T06:12:33.027Z,100960.81
2023-03-21T06:15:01.515Z,100980.91
2023-03-21T06:17:28.604Z,100972.91
2023-03-21T06:19:55.735Z,100981.47
2023-03-21T06:22:22.970Z,100966.31
2023-03-21T06:24:50.274Z,100975.53
2023-03-21T06:27:17.306Z,100975.50
2023-03-21T06:29:46.073Z,100968.75
2023-03-21T06:32:13.322Z,100977.63
2023-03-21T06:34:40.551Z,100984.59
2023-03-21T06:37:07.554Z,100974.91
2023-03-21T06:39:35.172Z,100973.84
2023-03-21T06:42:03.120Z,100980.84
2023-03-21T06:44:30.223Z,100973.22
2023-03-21T06:46:57.487Z,100974.56
2023-03-21T06:49:24.813Z,100972.16
2023-03-21T06:51:51.840Z,100968.91
2023-03-21T06:54:19.586Z,100973.69
2023-03-21T06:56:47.254Z,100975.31
2023-03-21T06:59:14.621Z,100957.41
2023-03-21T07:01:42.899Z,100975.28
2023-03-21T07:04:10.786Z,100967.13
2023-03-21T07:06:38.210Z,100963.34
2023-03-21T07:09:06.169Z,100975.72
2023-03-21T07:11:33.234Z,100975.72
2023-03-21T07:14:00.626Z,100960.13
2023-03-21T07:16:27.888Z,100960.34
2023-03-21T07:18:55.588Z,100975.25
2023-03-21T07:21:22.877Z,100974.44
2023-03-21T07:23:50.636Z,100976.00
2023-03-21T07:26:18.527Z,100983.59
2023-03-21T07:28:45.778Z,100979.16
2023-03-21T07:31:15.897Z,100984.56
2023-03-21T07:33:42.985Z,100986.13
2023-03-21T07:36:15.368Z,100987.09
2023-03-21T07:38:45.970Z,100989.88
2023-03-21T07:41:13.693Z,100990.41
2023-03-21T07:43:40.865Z,100986.66
2023-03-21T07:46:08.233Z,100987.72
2023-03-21T07:48:35.473Z,100993.63
2023-03-21T07:51:02.904Z,100983.84
2023-03-21T07:53:29.918Z,100990.41
2023-03-21T07:55:56.973Z,100986.13
2023-03-21T07:58:25.641Z,100990.56
2023-03-21T08:00:53.637Z,100996.69
2023-03-21T08:03:21.272Z,100985.34
2023-03-21T08:05:48.378Z,100993.34
2023-03-21T08:08:15.653Z,100996.03
2023-03-21T08:10:44.264Z,101003.00
2023-03-21T08:13:12.915Z,101003.56
2023-03-21T08:15:42.332Z,100998.09
2023-03-21T08:18:10.855Z,101006.94
2023-03-21T08:20:38.276Z,101003.31
2023-03-21T08:23:05.478Z,101008.97
2023-03-21T08:25:33.481Z,101012.19
2023-03-21T08:28:00.792Z,101012.72
2023-03-21T08:30:29.343Z,101016.94
2023-03-21T08:33:00.812Z,101013.16
2023-03-21T08:35:29.616Z,101016.09
2023-03-21T08:37:57.312Z,101014.22
2023-03-21T08:40:24.556Z,101013.63
2023-03-21T08:42:51.926Z,101001.75
2023-03-21T08:45:18.992Z,101016.25
2023-03-21T08:47:46.978Z,101003.97
2023-03-21T08:50:19.972Z,101017.84
2023-03-21T08:52:47.913Z,101001.28
2023-03-21T08:55:16.374Z,101015.63
2023-03-21T08:57:44.040Z,101016.72
2023-03-21T09:00:14.380Z,101025.75
2023-03-21T09:02:42.405Z,101026.78
2023-03-21T09:05:12.388Z,101028.09
2023-03-21T09:07:40.921Z,101027.44
2023-03-21T09:10:26.950Z,101020.22
2023-03-21T09:12:55.454Z,101032.16
2023-03-21T09:15:25.233Z,101026.47
2023-03-21T09:17:54.176Z,101039.88
2023-03-21T09:20:30.616Z,101046.06
2023-03-21T09:22:59.157Z,101044.72
2023-03-21T09:25:32.908Z,101044.56
2023-03-21T09:28:01.392Z,101049.44
2023-03-21T09:30:29.567Z,101048.75
2023-03-21T09:32:56.933Z,101048.59
2023-03-21T09:35:25.106Z,101066.53
2023-03-21T09:37:52.502Z,101055.75
2023-03-21T09:40:31.585Z,101070.78
2023-03-21T09:43:13.932Z,101071.19
2023-03-21T09:45:52.712Z,101072.16
2023-03-21T09:48:39.586Z,101068.84
2023-03-21T09:51:15.977Z,101063.38
2023-03-21T09:53:47.843Z,101059.44
2023-03-21T09:56:17.102Z,101057.72
2023-03-21T09:58:54.704Z,101053.91
2023-03-21T10:01:41.988Z,101056.66
2023-03-21T10:04:17.298Z,101049.88
2023-03-21T10:06:48.258Z,101053.97
2023-03-21T10:09:27.196Z,101064.16
2023-03-21T10:12:00.956Z,101064.97
2023-03-21T10:14:50.068Z,101070.78
2023-03-21T10:17:33.970Z,101072.13
2023-03-21T10:20:18.305Z,101087.59
2023-03-21T10:22:47.675Z,101082.59
2023-03-21T10:25:18.294Z,101084.69
2023-03-21T10:27:46.848Z,101090.22
2023-03-21T10:30:38.572Z,101100.50
2023-03-21T10:33:15.489Z,101105.59
2023-03-21T10:35:48.079Z,101100.78
2023-03-21T10:38:21.485Z,101101.50
2023-03-21T10:40:48.873Z,101111.28
2023-03-21T10:43:27.937Z,101104.50
2023-03-21T10:45:55.911Z,101109.50
2023-03-21T10:48:24.396Z,101110.81
2023-03-21T10:50:55.229Z,101117.00
2023-03-21T10:53:32.788Z,101112.03
2023-03-21T10:56:01.257Z,101121.66
2023-03-21T10:58:33.281Z,101125.63
2023-03-21T11:01:07.533Z,101126.72
2023-03-21T11:03:43.635Z,101124.41
2023-03-21T11:06:27.138Z,101121.66
2023-03-21T11:08:57.716Z,101126.13
2023-03-21T11:11:33.223Z,101123.81
2023-03-21T11:14:07.079Z,101122.03
2023-03-21T11:16:41.452Z,101119.06
2023-03-21T11:19:17.812Z,101129.25
2023-03-21T11:21:45.350Z,101127.94
2023-03-21T11:24:18.596Z,101130.63
2023-03-21T11:26:49.652Z,101131.84
2023-03-21T11:29:35.398Z,101136.75
2023-03-21T11:32:12.361Z,101130.56
2023-03-21T11:34:47.929Z,101131.34
2023-03-21T11:37:24.896Z,101130.22
2023-03-21T11:40:15.684Z,101125.44
2023-03-21T11:42:47.139Z,101121.66
2023-03-21T11:45:16.567Z,101118.03
2023-03-21T11:47:44.312Z,101110.03
2023-03-21T11:50:35.316Z,101107.84
2023-03-21T11:53:14.313Z,101106.03
2023-03-21T11:55:46.444Z,101106.31
2023-03-21T11:58:31.660Z,101093.03
2023-03-21T12:01:31.501Z,101101.13
2023-03-21T12:04:01.851Z,101094.50
2023-03-21T12:06:36.228Z,101099.53
2023-03-21T12:09:13.034Z,101090.63
2023-03-21T12:12:09.629Z,101092.22
2023-03-21T12:14:45.683Z,101086.72
2023-03-21T12:17:25.057Z,101087.22
2023-03-21T12:20:23.292Z,101085.59
2023-03-21T12:23:03.862Z,101073.22
2023-03-21T12:26:14.383Z,101063.63
2023-03-21T12:29:01.663Z,101056.22
2023-03-21T12:31:30.828Z,101056.94
2023-03-21T12:34:19.194Z,101054.31
2023-03-21T12:37:05.051Z,101051.31
2023-03-21T12:39:36.660Z,101049.59
2023-03-21T12:42:34.719Z,101041.63
2023-03-21T12:45:45.790Z,101033.41
2023-03-21T12:48:40.568Z,101016.81
2023-03-21T12:51:13.116Z,101024.50
2023-03-21T12:54:01.068Z,101019.50
2023-03-21T12:57:07.343Z,101016.00
2023-03-21T13:00:05.435Z,101019.41
2023-03-21T13:02:36.483Z,101014.72
2023-03-21T13:05:20.495Z,101006.81
2023-03-21T13:07:57.436Z,101006.53
2023-03-21T13:10:25.064Z,101015.72
2023-03-21T13:12:58.640Z,101007.59
2023-03-21T13:15:25.762Z,101009.50
2023-03-21T13:18:12.403Z,101002.00
2023-03-21T13:20:46.307Z,101009.22
2023-03-21T13:23:13.776Z,101010.69
2023-03-21T13:25:48.184Z,101009.00
2023-03-21T13:28:35.402Z,101009.91
2023-03-21T13:31:21.225Z,101020.31
2023-03-21T13:33:50.428Z,101024.13
2023-03-21T13:36:25.756Z,101015.38
2023-03-21T13:38:59.682Z,101016.41
2023-03-21T13:41:35.275Z,101005.28
2023-03-21T13:44:02.252Z,101006.88
2023-03-21T13:46:29.519Z,101002.88
2023-03-21T13:49:01.836Z,101003.47
2023-03-21T13:51:29.041Z,101002.00
2023-03-21T13:54:07.955Z,100998.88
2023-03-21T13:56:47.066Z,100986.31
2023-03-21T13:59:17.503Z,100983.78
2023-03-21T14:02:04.434Z,100985.81
2023-03-21T14:04:42.051Z,100986.09
2023-03-21T14:07:13.927Z,100982.78
2023-03-21T14:09:50.738Z,100965.78
2023-03-21T14:12:22.765Z,100944.91
2023-03-21T14:15:13.953Z,100937.22
2023-03-21T14:17:54.670Z,100927.13
2023-03-21T14:20:27.990Z,100923.00
2023-03-21T14:22:55.304Z,100913.00
2023-03-21T14:25:29.174Z,100900.28
2023-03-21T14:28:01.811Z,100892.03
2023-03-21T14:30:38.462Z,100891.31
2023-03-21T14:33:08.440Z,100882.19
2023-03-21T14:35:35.854Z,100872.50
2023-03-21T14:38:09.357Z,100870.03
2023-03-21T14:40:37.098Z,100869.25
2023-03-21T14:43:06.439Z,100848.63
2023-03-21T14:45:36.932Z,100846.22
2023-03-21T14:48:16.405Z,100838.03
2023-03-21T14:50:51.122Z,100837.56
2023-03-21T14:53:23.376Z,100829.19
2023-03-21T14:55:57.890Z,100810.19
2023-03-21T14:58:26.492Z,100807.78
2023-03-21T15:00:57.753Z,100804.47
2023-03-21T15:03:27.623Z,100793.66
2023-03-21T15:05:56.086Z,100782.88
2023-03-21T15:08:26.350Z,100773.81
2023-03-21T15:11:07.879Z,100764.31
2023-03-21T15:13:36.998Z,100761.59
2023-03-21T15:16:05.042Z,100752.81
2023-03-21T15:18:34.612Z,100750.13
2023-03-21T15:21:06.130Z,100743.53
2023-03-21T15:23:39.419Z,100742.13
2023-03-21T15:26:07.741Z,100737.84
2023-03-21T15:28:35.777Z,100726.25
2023-03-21T15:31:04.972Z,100722.38
2023-03-21T15:33:33.150Z,100709.50
2023-03-21T15:36:00.596Z,100709.97
2023-03-21T15:38:45.045Z,100705.09
2023-03-21T15:41:21.253Z,100710.19
2023-03-21T15:44:09.490Z,100706.00
2023-03-21T15:46:42.727Z,100695.00
2023-03-21T15:49:17.295Z,100687.41
2023-03-21T15:52:09.292Z,100688.22
2023-03-21T15:54:42.334Z,100691.81
2023-03-21T15:57:38.030Z,100687.84
2023-03-21T16:00:25.283Z,100679.53
2023-03-21T16:03:00.911Z,100673.34
2023-03-21T16:05:33.765Z,100673.16
2023-03-21T16:08:06.935Z,100675.69
2023-03-21T16:10:37.611Z,100674.88
2023-03-21T16:13:06.671Z,100679.28
2023-03-21T16:15:34.069Z,100676.09
2023-03-21T16:18:04.986Z,100679.88
2023-03-21T16:20:35.365Z,100674.25
2023-03-21T16:23:02.900Z,100673.97
2023-03-21T16:25:32.306Z,100674.25
2023-03-21T16:27:59.770Z,100669.00
2023-03-21T16:30:27.526Z,100657.72
2023-03-21T16:32:54.683Z,100668.22
2023-03-21T16:35:23.615Z,100665.72
2023-03-21T16:37:50.904Z,100664.94
2023-03-21T16:40:35.769Z,100662.81
2023-03-21T16:43:03.085Z,100654.28
2023-03-21T16:45:31.130Z,100657.94
2023-03-21T16:47:59.043Z,100660.34
2023-03-21T16:50:33.481Z,100660.63
2023-03-21T16:53:01.420Z,100659.91
2023-03-21T16:55:29.268Z,100661.31
2023-03-21T16:57:57.368Z,100664.31
2023-03-21T17:00:27.942Z,100676.22
2023-03-21T17:02:56.976Z,100665.91
2023-03-21T17:05:26.252Z,100669.59
2023-03-21T17:07:54.721Z,100665.31
2023-03-21T17:10:30.236Z,100657.75
2023-03-21T17:12:57.305Z,100656.94
2023-03-21T17:15:24.367Z,100663.72
2023-03-21T17:17:51.986Z,100653.06
2023-03-21T17:20:23.665Z,100654.53
2023-03-21T17:22:50.901Z,100651.53
2023-03-21T17:25:18.931Z,100636.69
2023-03-21T17:27:47.085Z,100644.78
2023-03-21T17:30:20.766Z,100638.56
2023-03-21T17:32:49.777Z,100646.94
2023-03-21T17:35:17.532Z,100639.38
2023-03-21T17:37:50.589Z,100632.97
2023-03-21T17:40:26.333Z,100651.03
2023-03-21T17:42:53.809Z,100642.28
2023-03-21T17:45:22.901Z,100644.75
2023-03-21T17:47:51.314Z,100642.06
2023-03-21T17:50:31.322Z,100645.56
2023-03-21T17:52:58.340Z,100639.28
2023-03-21T17:55:26.166Z,100649.88
2023-03-21T17:57:53.256Z,100637.78
2023-03-21T18:00:26.281Z,100637.56
2023-03-21T18:02:53.688Z,100639.16
2023-03-21T18:05:24.689Z,100639.97
2023-03-21T18:08:09.796Z,100636.19
2023-03-21T18:10:39.371Z,100627.41
2023-03-21T18:13:08.179Z,100642.03
2023-03-21T18:15:37.973Z,100643.59
2023-03-21T18:18:05.850Z,100647.66
2023-03-21T18:23:21.056Z,100646.34
2023-03-21T18:25:48.652Z,100638.47
2023-03-21T18:28:19.204Z,100642.38
2023-03-21T18:33:38.158Z,100646.56
2023-03-21T18:36:07.708Z,100638.19
2023-03-21T18:38:36.492Z,100636.66
2023-03-21T18:41:04.218Z,100634.69
2023-03-21T18:46:19.001Z,100633.69
2023-03-21T18:48:46.579Z,100628.97
2023-03-21T18:51:14.109Z,100628.97
2023-03-21T18:53:41.455Z,100628.19
2023-03-21T18:56:10.677Z,100623.31
2023-03-21T18:58:38.723Z,100630.88
2023-03-21T19:01:06.400Z,100637.38
2023-03-21T19:03:36.935Z,100633.56
2023-03-21T19:06:06.358Z,100626.63
2023-03-21T19:08:36.977Z,100617.34
2023-03-21T19:11:06.769Z,100617.63
2023-03-21T19:13:34.446Z,100625.09
2023-03-21T19:16:02.704Z,100624.22
2023-03-21T19:18:52.107Z,100623.50
2023-03-21T19:21:19.766Z,100624.28
2023-03-21T19:26:34.030Z,100628.03
2023-03-21T19:29:01.686Z,100622.03
2023-03-21T19:31:28.847Z,100621.63
2023-03-21T19:33:56.136Z,100621.72
2023-03-21T19:36:23.668Z,100626.09
2023-03-21T19:38:51.762Z,100618.59
2023-03-21T19:41:20.227Z,100614.25
2023-03-21T19:43:54.590Z,100612.22
2023-03-21T19:46:31.076Z,100619.22
2023-03-21T19:49:06.062Z,100616.53
2023-03-21T19:51:39.713Z,100619.22
2023-03-21T19:54:14.908Z,100615.53
2023-03-21T19:56:47.041Z,100606.94
2023-03-21T19:59:15.357Z,100605.75
2023-03-21T20:01:43.388Z,100607.44
2023-03-21T20:04:11.269Z,100604.25
2023-03-21T20:06:38.697Z,100601.06
2023-03-21T20:09:50.117Z,100591.28
2023-03-21T20:11:54.556Z,100590.97
2023-03-21T20:14:21.931Z,100583.13
2023-03-21T20:16:49.432Z,100583.59
2023-03-21T20:19:17.073Z,100584.69
2023-03-21T20:21:49.761Z,100583.69
2023-03-21T20:24:20.680Z,100563.16
2023-03-21T20:26:49.284Z,100577.72
2023-03-21T20:30:05.704Z,100573.91
2023-03-21T20:32:04.367Z,100578.72
2023-03-21T20:34:31.464Z,100570.75
2023-03-21T20:36:58.896Z,100570.94
2023-03-21T20:39:28.034Z,100574.94
2023-03-21T20:41:56.592Z,100566.34
2023-03-21T20:47:10.815Z,100564.44
2023-03-21T20:49:38.032Z,100567.06
2023-03-21T20:52:52.215Z,100562.44
2023-03-21T20:54:57.477Z,100562.34
2023-03-21T20:57:27.246Z,100557.19
2023-03-21T20:59:55.144Z,100549.97
2023-03-21T21:02:23.298Z,100554.25
2023-03-21T21:05:21.529Z,100548.78
2023-03-21T21:07:41.661Z,100553.06
2023-03-21T21:10:14.294Z,100554.97
2023-03-21T21:12:45.105Z,100547.34
2023-03-21T21:15:14.947Z,100555.44
2023-03-21T21:20:29.668Z,100567.72
2023-03-21T21:22:59.979Z,100562.31
2023-03-21T21:25:29.044Z,100562.81
2023-03-21T21:27:56.256Z,100553.88
2023-03-21T21:30:23.459Z,100556.13
2023-03-21T21:32:50.724Z,100551.16
2023-03-21T21:35:19.862Z,100545.97
2023-03-21T21:37:47.043Z,100547.47
2023-03-21T21:40:20.380Z,100548.38
2023-03-21T21:42:47.659Z,100542.47
2023-03-21T21:45:16.095Z,100548.56
2023-03-21T21:47:44.819Z,100543.16
2023-03-21T21:50:13.201Z,100537.47
2023-03-21T21:52:43.565Z,100527.63
2023-03-21T21:55:11.111Z,100535.09
2023-03-21T21:57:39.661Z,100535.09
2023-03-21T22:00:13.232Z,100540.97
2023-03-21T22:02:41.444Z,100538.28
2023-03-21T22:05:10.855Z,100535.59
2023-03-21T22:07:38.213Z,100542.72
2023-03-21T22:10:05.841Z,100548.47
2023-03-21T22:12:32.929Z,100543.16
2023-03-21T22:15:00.352Z,100548.25
2023-03-21T22:17:27.377Z,100554.22
2023-03-21T22:20:05.199Z,100546.94
2023-03-21T22:22:34.151Z,100554.44
2023-03-21T22:25:01.394Z,100555.34
2023-03-21T22:27:28.517Z,100565.91
2023-03-21T22:29:56.312Z,100549.75
2023-03-21T22:32:23.992Z,100566.44
2023-03-21T22:34:51.158Z,100566.91
2023-03-21T22:37:18.197Z,100558.13
2023-03-21T22:39:45.428Z,100558.94
2023-03-21T22:42:12.526Z,100562.13
2023-03-21T22:44:40.037Z,100565.91
2023-03-21T22:47:09.895Z,100562.44
2023-03-21T22:49:38.246Z,100557.38
2023-03-21T22:52:06.362Z,100553.69
2023-03-21T22:54:33.703Z,100563.38
2023-03-21T22:57:00.742Z,100551.97
2023-03-21T22:59:28.523Z,100554.66
2023-03-21T23:01:55.621Z,100551.97
2023-03-21T23:04:23.596Z,100546.59
2023-03-21T23:06:51.084Z,100552.44
2023-03-21T23:09:18.184Z,100555.66
2023-03-21T23:11:49.270Z,100554.16
2023-03-21T23:14:19.308Z,100553.69
2023-03-21T23:16:47.661Z,100551.56
2023-03-21T23:19:15.981Z,100547.78
2023-03-21T23:21:44.608Z,100539.78
2023-03-21T23:24:12.565Z,100550.09
2023-03-21T23:26:39.748Z,100548.56
2023-03-21T23:29:09.957Z,100553.78
2023-03-21T23:31:37.180Z,100546.41
2023-03-21T23:34:04.882Z,100540.28
2023-03-21T23:36:32.378Z,100544.09
2023-03-21T23:38:59.416Z,100541.75
2023-03-21T23:41:26.916Z,100539.13
2023-03-21T23:43:54.182Z,100541.53
2023-03-21T23:46:21.350Z,100537.03
2023-03-21T23:48:48.908Z,100532.03
2023-03-21T23:51:17.717Z,100538.03
2023-03-21T23:53:46.820Z,100533.22
2023-03-21T23:56:21.635Z,100541.59
2023-03-21T23:58:50.122Z,100534.88
